createdAt,value
2023-02-01T00:02:19.090Z,98021.91
2023-02-01T00:07:20.927Z,98028.03
2023-02-01T00:12:22.754Z,98024.44
2023-02-01T00:17:25.105Z,98029.16
2023-02-01T00:22:26.939Z,98022.22
2023-02-01T00:27:28.883Z,98035.88
2023-02-01T00:32:32.992Z,98029.63
2023-02-01T00:37:34.871Z,98029.81
2023-02-01T00:42:36.811Z,98026.13
2023-02-01T00:47:38.698Z,98045.25
2023-02-01T00:52:40.556Z,98044.78
2023-02-01T00:57:42.401Z,98038.94
2023-02-01T01:02:44.250Z,98048.59
2023-02-01T01:07:46.121Z,98054.09
2023-02-01T01:12:48.227Z,98054.00
2023-02-01T01:17:50.073Z,98043.66
2023-02-01T01:22:51.934Z,98047.03
2023-02-01T01:27:53.882Z,98037.56
2023-02-01T01:32:55.752Z,98043.41
2023-02-01T01:37:57.972Z,98031.50
2023-02-01T01:43:00.150Z,98036.44
2023-02-01T01:48:20.003Z,98021.41
2023-02-01T01:53:28.828Z,98015.09
2023-02-01T01:58:34.525Z,98018.91
2023-02-01T02:03:43.407Z,98018.78
2023-02-01T02:08:45.586Z,98008.81
2023-02-01T02:13:55.193Z,97998.50
2023-02-01T02:19:32.217Z,98009.47
2023-02-01T02:24:48.060Z,98001.19
2023-02-01T02:30:11.728Z,97997.91
2023-02-01T02:35:37.546Z,98000.75
2023-02-01T02:41:34.720Z,98007.22
2023-02-01T02:47:01.512Z,97993.34
2023-02-01T02:52:29.461Z,97986.38
2023-02-01T02:57:54.786Z,97999.34
2023-02-01T03:03:15.443Z,98002.03
2023-02-01T03:08:20.847Z,98009.19
2023-02-01T03:13:34.359Z,98002.22
2023-02-01T03:18:52.084Z,98003.81
2023-02-01T03:24:00.891Z,98005.41
2023-02-01T03:29:15.246Z,98003.03
2023-02-01T03:34:18.765Z,97996.06
2023-02-01T03:39:35.803Z,97995.41
2023-02-01T03:44:48.138Z,97989.25
2023-02-01T03:49:58.790Z,98004.59
2023-02-01T03:55:02.612Z,97984.53
2023-02-01T04:00:12.831Z,97988.59
2023-02-01T04:05:20.108Z,97986.88
2023-02-01T04:10:30.037Z,97980.06
2023-02-01T04:15:31.940Z,97988.91
2023-02-01T04:20:33.804Z,97998.03
2023-02-01T04:25:35.656Z,97966.19
2023-02-01T04:30:37.625Z,97972.03
2023-02-01T04:35:39.501Z,97953.53
2023-02-01T04:40:41.325Z,97952.88
2023-02-01T04:45:47.417Z,97950.53
2023-02-01T04:50:49.812Z,97947.50
2023-02-01T04:55:51.667Z,97936.59
2023-02-01T05:00:53.563Z,97927.28
2023-02-01T05:05:55.405Z,97911.25
2023-02-01T05:10:57.482Z,97901.28
2023-02-01T05:15:59.368Z,97901.59
2023-02-01T05:21:02.108Z,97879.63
2023-02-01T05:26:05.328Z,97891.97
2023-02-01T05:31:11.702Z,97891.63
2023-02-01T05:36:13.745Z,97882.31
2023-02-01T05:41:15.645Z,97876.13
2023-02-01T05:46:17.497Z,97878.53
2023-02-01T05:51:19.488Z,97896.22
2023-02-01T05:56:21.369Z,97885.47
2023-02-01T06:01:23.234Z,97878.97
2023-02-01T06:06:25.033Z,97878.63
2023-02-01T06:11:34.298Z,97898.28
2023-02-01T06:16:36.191Z,97879.09
2023-02-01T06:21:38.182Z,97880.69
2023-02-01T06:26:41.163Z,97878.56
2023-02-01T06:31:43.920Z,97873.16
2023-02-01T06:36:45.805Z,97871.16
2023-02-01T06:41:51.502Z,97883.94
2023-02-01T06:46:53.399Z,97886.38
2023-02-01T06:51:55.288Z,97870.25
2023-02-01T06:56:57.080Z,97865.97
2023-02-01T07:01:58.970Z,97854.94
2023-02-01T07:07:00.878Z,97861.00
2023-02-01T07:12:02.715Z,97856.28
2023-02-01T07:17:04.539Z,97848.41
2023-02-01T07:22:06.427Z,97846.06
2023-02-01T07:27:08.285Z,97849.50
2023-02-01T07:32:10.265Z,97846.94
2023-02-01T07:37:12.192Z,97844.00
2023-02-01T07:42:14.036Z,97838.22
2023-02-01T07:47:15.855Z,97836.50
2023-02-01T07:52:17.884Z,97831.13
2023-02-01T07:57:20.663Z,97821.03
2023-02-01T08:02:22.511Z,97817.38
2023-02-01T08:07:24.429Z,97817.50
2023-02-01T08:12:26.560Z,97825.09
2023-02-01T08:17:29.542Z,97812.31
2023-02-01T08:22:34.382Z,97800.47
2023-02-01T08:27:37.001Z,97794.28
2023-02-01T08:32:39.173Z,97798.44
2023-02-01T08:37:41.424Z,97788.25
2023-02-01T08:42:52.289Z,97777.88
2023-02-01T08:47:54.666Z,97776.28
2023-02-01T08:52:56.603Z,97772.81
2023-02-01T08:57:58.552Z,97776.88
2023-02-01T09:03:00.437Z,97776.47
2023-02-01T09:08:02.272Z,97787.91
2023-02-01T09:13:04.263Z,97777.16
2023-02-01T09:18:06.157Z,97766.81
2023-02-01T09:23:08.486Z,97777.50
2023-02-01T09:28:10.426Z,97779.59
2023-02-01T09:33:12.277Z,97797.09
2023-02-01T09:38:14.137Z,97791.00
2023-02-01T09:43:23.951Z,97770.34
2023-02-01T09:48:33.292Z,97807.63
2023-02-01T09:53:39.625Z,97794.88
2023-02-01T09:58:57.643Z,97810.25
2023-02-01T10:04:06.442Z,97812.44
2023-02-01T10:09:42.505Z,97815.06
2023-02-01T10:15:15.413Z,97837.66
2023-02-01T10:20:41.575Z,97846.06
2023-02-01T10:25:57.466Z,97837.38
2023-02-01T10:30:59.928Z,97842.75
2023-02-01T10:36:18.097Z,97828.66
2023-02-01T10:41:23.013Z,97856.81
2023-02-01T10:46:25.730Z,97824.56
2023-02-01T10:51:34.899Z,97842.00
2023-02-01T10:56:39.449Z,97843.28
2023-02-01T11:01:43.051Z,97836.50
2023-02-01T11:06:46.745Z,97834.72
2023-02-01T11:11:48.580Z,97865.94
2023-02-01T11:17:01.186Z,97856.03
2023-02-01T11:22:05.405Z,97852.47
2023-02-01T11:27:18.858Z,97836.72
2023-02-01T11:38:15.284Z,97853.44
2023-02-01T11:43:29.941Z,97825.31
2023-02-01T11:48:33.783Z,97824.63
2023-02-01T11:53:54.451Z,97846.75
2023-02-01T11:59:17.389Z,97822.75
2023-02-01T12:04:19.164Z,97824.13
2023-02-01T12:09:36.758Z,97806.94
2023-02-01T12:14:41.609Z,97817.69
2023-02-01T12:20:11.478Z,97803.47
2023-02-01T12:25:37.632Z,97796.72
2023-02-01T12:31:06.321Z,97796.16
2023-02-01T12:36:39.680Z,97787.63
2023-02-01T12:42:04.514Z,97787.63
2023-02-01T12:47:21.634Z,97800.97
2023-02-01T12:52:35.801Z,97798.06
2023-02-01T12:57:43.913Z,97791.34
2023-02-01T13:02:55.546Z,97793.22
2023-02-01T13:08:32.815Z,97787.69
2023-02-01T13:13:47.679Z,97793.53
2023-02-01T13:18:53.305Z,97788.25
2023-02-01T13:23:55.606Z,97790.38
2023-02-01T13:29:17.996Z,97785.19
2023-02-01T13:34:47.513Z,97775.63
2023-02-01T13:40:17.929Z,97777.97
2023-02-01T13:45:26.346Z,97753.38
2023-02-01T13:50:31.723Z,97746.50
2023-02-01T13:55:37.349Z,97735.06
2023-02-01T14:00:41.402Z,97750.44
2023-02-01T14:05:44.947Z,97741.31
2023-02-01T14:10:48.507Z,97753.00
2023-02-01T14:16:17.791Z,97729.41
2023-02-01T14:21:35.155Z,97747.06
2023-02-01T14:26:46.847Z,97752.25
2023-02-01T14:32:03.892Z,97732.50
2023-02-01T14:37:09.875Z,97726.41
2023-02-01T14:42:23.506Z,97734.84
2023-02-01T14:47:25.312Z,97713.84
2023-02-01T14:52:46.170Z,97706.81
2023-02-01T14:57:51.619Z,97725.22
2023-02-01T15:02:55.470Z,97731.06
2023-02-01T15:08:01.480Z,97724.53
2023-02-01T15:13:03.335Z,97731.50
2023-02-01T15:18:05.222Z,97711.31
2023-02-01T15:23:18.047Z,97702.47
2023-02-01T15:28:20.774Z,97694.75
2023-02-01T15:33:22.755Z,97683.34
2023-02-01T15:38:24.581Z,97697.84
2023-02-01T15:43:28.395Z,97650.00
2023-02-01T15:48:40.714Z,97649.94
2023-02-01T15:53:48.214Z,97643.53
2023-02-01T15:58:54.299Z,97645.94
2023-02-01T16:04:16.226Z,97665.88
2023-02-01T16:09:21.096Z,97671.31
2023-02-01T16:14:24.107Z,97637.09
2023-02-01T16:19:29.277Z,97630.22
2023-02-01T16:24:32.791Z,97610.13
2023-02-01T16:29:34.964Z,97591.03
2023-02-01T16:34:37.940Z,97585.34
2023-02-01T16:39:40.004Z,97579.19
2023-02-01T16:44:42.163Z,97583.59
2023-02-01T16:49:44.963Z,97599.19
2023-02-01T16:54:47.056Z,97594.44
2023-02-01T16:59:49.262Z,97598.38
2023-02-01T17:04:51.199Z,97634.03
2023-02-01T17:09:53.386Z,97710.84
2023-02-01T17:14:55.335Z,97750.47
2023-02-01T17:19:57.313Z,97691.66
2023-02-01T17:24:59.467Z,97686.97
2023-02-01T17:30:04.294Z,97703.75
2023-02-01T17:35:14.796Z,97683.63
2023-02-01T17:40:17.091Z,97682.09
2023-02-01T17:45:37.625Z,97703.38
2023-02-01T17:50:40.105Z,97710.22
2023-02-01T17:55:45.262Z,97717.75
2023-02-01T18:00:48.883Z,97736.97
2023-02-01T18:05:53.705Z,97757.66
2023-02-01T18:11:00.850Z,97766.47
2023-02-01T18:16:04.668Z,97744.22
2023-02-01T18:21:06.610Z,97753.56
2023-02-01T18:26:12.155Z,97748.47
2023-02-01T18:31:25.775Z,97749.84
2023-02-01T18:36:31.333Z,97764.38
2023-02-01T18:41:34.248Z,97761.25
2023-02-01T18:46:36.207Z,97768.38
2023-02-01T18:51:38.559Z,97763.00
2023-02-01T18:56:40.495Z,97772.00
2023-02-01T19:01:44.481Z,97776.69
2023-02-01T19:06:46.941Z,97768.81
2023-02-01T19:11:49.255Z,97762.53
2023-02-01T19:16:51.262Z,97764.13
2023-02-01T19:21:53.128Z,97760.94
2023-02-01T19:26:55.286Z,97768.88
2023-02-01T19:31:57.763Z,97762.25
2023-02-01T19:37:00.887Z,97772.59
2023-02-01T19:42:04.250Z,97767.53
2023-02-01T19:47:06.347Z,97773.19
2023-02-01T19:52:08.217Z,97784.66
2023-02-01T19:57:10.184Z,97775.31
2023-02-01T20:02:15.282Z,97781.63
2023-02-01T20:07:17.206Z,97785.69
2023-02-01T20:12:19.100Z,97783.34
2023-02-01T20:17:20.937Z,97790.41
2023-02-01T20:22:22.765Z,97785.31
2023-02-01T20:27:26.205Z,97788.00
2023-02-01T20:32:28.151Z,97804.13
2023-02-01T20:37:30.207Z,97814.34
2023-02-01T20:42:32.098Z,97822.28
2023-02-01T20:47:34.015Z,97824.38
2023-02-01T20:52:36.047Z,97839.56
2023-02-01T20:57:37.987Z,97824.69
2023-02-01T21:02:40.024Z,97828.94
2023-02-01T21:07:42.127Z,97816.75
2023-02-01T21:12:44.016Z,97835.03
2023-02-01T21:17:45.842Z,97832.34
2023-02-01T21:22:47.681Z,97832.34
2023-02-01T21:27:49.588Z,97831.72
2023-02-01T21:32:51.769Z,97831.59
2023-02-01T21:37:53.641Z,97846.91
2023-02-01T21:42:55.612Z,97843.50
2023-02-01T21:47:57.558Z,97847.91
2023-02-01T21:52:59.364Z,97845.69
2023-02-01T21:58:01.256Z,97850.56
2023-02-01T22:03:03.084Z,97843.50
2023-02-01T22:08:05.267Z,97842.25
2023-02-01T22:13:07.884Z,97855.84
2023-02-01T22:18:09.825Z,97846.25
2023-02-01T22:23:11.660Z,97859.81
2023-02-01T22:28:33.013Z,97851.94
2023-02-01T22:33:35.498Z,97850.66
2023-02-01T22:38:37.413Z,97841.91
2023-02-01T22:43:39.745Z,97858.94
2023-02-01T22:48:43.265Z,97852.75
2023-02-01T22:53:45.668Z,97864.75
2023-02-01T22:58:47.467Z,97845.97
2023-02-01T23:03:49.524Z,97853.34
2023-02-01T23:08:58.168Z,97841.81
2023-02-01T23:14:00.047Z,97849.69
2023-02-01T23:19:02.371Z,97847.84
2023-02-01T23:24:07.402Z,97850.72
2023-02-01T23:29:16.130Z,97845.03
2023-02-01T23:34:17.892Z,97866.91
2023-02-01T23:39:19.639Z,97851.44
2023-02-01T23:44:21.446Z,97862.81
2023-02-01T23:49:23.219Z,97863.47
2023-02-01T23:54:25.012Z,97870.69
2023-02-01T23:59:26.965Z,97882.69
